createdAt,value
2022-12-05T00:01:21.193Z,22.50
2022-12-05T00:03:49.986Z,21.70
2022-12-05T00:06:17.589Z,23.45
2022-12-05T00:08:45.146Z,23.92
2022-12-05T00:11:13.724Z,22.90
2022-12-05T00:13:41.241Z,21.40
2022-12-05T00:16:09.858Z,22.90
2022-12-05T00:18:37.155Z,24.55
2022-12-05T00:21:04.892Z,23.10
2022-12-05T00:23:32.184Z,23.65
2022-12-05T00:26:02.691Z,23.85
2022-12-05T00:28:29.963Z,23.77
2022-12-05T00:30:57.180Z,23.55
2022-12-05T00:33:24.425Z,25.08
2022-12-05T00:35:51.578Z,25.23
2022-12-05T00:38:18.787Z,23.85
2022-12-05T00:40:46.075Z,24.67
2022-12-05T00:43:13.278Z,23.67
2022-12-05T00:45:40.525Z,25.65
2022-12-05T00:48:07.805Z,25.00
2022-12-05T00:50:35.053Z,26.13
2022-12-05T00:53:02.290Z,26.38
2022-12-05T00:55:29.520Z,27.40
2022-12-05T00:57:56.764Z,27.08
2022-12-05T01:00:23.978Z,26.67
2022-12-05T01:02:51.157Z,26.33
2022-12-05T01:05:18.472Z,28.15
2022-12-05T01:07:45.693Z,28.30
2022-12-05T01:10:12.951Z,27.98
2022-12-05T01:12:40.144Z,27.85
2022-12-05T01:15:07.735Z,26.75
2022-12-05T01:17:35.945Z,28.25
2022-12-05T01:20:03.391Z,28.38
2022-12-05T01:22:30.699Z,28.60
2022-12-05T01:24:58.225Z,28.98
2022-12-05T01:27:25.658Z,26.67
2022-12-05T01:29:52.854Z,27.23
2022-12-05T01:32:20.197Z,29.23
2022-12-05T01:34:47.564Z,27.77
2022-12-05T01:37:14.709Z,27.52
2022-12-05T01:39:42.179Z,27.35
2022-12-05T01:42:09.362Z,29.08
2022-12-05T01:44:36.683Z,27.80
2022-12-05T01:47:03.876Z,25.73
2022-12-05T01:49:33.434Z,26.65
2022-12-05T01:52:06.692Z,28.85
2022-12-05T01:54:36.026Z,26.70
2022-12-05T01:57:04.640Z,26.95
2022-12-05T01:59:33.701Z,26.45
2022-12-05T02:02:01.198Z,27.10
2022-12-05T02:04:28.875Z,27.42
2022-12-05T02:06:56.146Z,26.50
2022-12-05T02:09:24.290Z,27.08
2022-12-05T02:11:54.922Z,26.80
2022-12-05T02:14:40.231Z,25.55
2022-12-05T02:17:13.583Z,26.60
2022-12-05T02:19:50.080Z,27.15
2022-12-05T02:22:23.516Z,26.25
2022-12-05T02:24:56.628Z,25.83
2022-12-05T02:27:26.590Z,25.55
2022-12-05T02:30:10.858Z,25.35
2022-12-05T02:33:05.075Z,25.77
2022-12-05T02:35:41.111Z,25.85
2022-12-05T02:38:08.473Z,25.90
2022-12-05T02:40:41.538Z,26.50
2022-12-05T02:43:14.812Z,27.15
2022-12-05T02:45:43.348Z,25.27
2022-12-05T02:48:12.037Z,26.30
2022-12-05T02:50:39.719Z,25.23
2022-12-05T02:53:15.244Z,27.35
2022-12-05T02:55:42.918Z,27.10
2022-12-05T02:58:13.782Z,27.30
2022-12-05T03:00:43.468Z,26.05
2022-12-05T03:03:16.194Z,27.95
2022-12-05T03:05:58.512Z,25.50
2022-12-05T03:08:28.371Z,26.33
2022-12-05T03:10:56.515Z,26.67
2022-12-05T03:13:29.691Z,26.02
2022-12-05T03:16:03.812Z,27.20
2022-12-05T03:18:32.994Z,29.17
2022-12-05T03:21:06.137Z,26.08
2022-12-05T03:23:38.929Z,26.80
2022-12-05T03:26:12.280Z,26.67
2022-12-05T03:28:50.793Z,27.60
2022-12-05T03:31:20.862Z,27.13
2022-12-05T03:33:50.594Z,25.58
2022-12-05T03:36:29.278Z,26.17
2022-12-05T03:39:06.452Z,27.17
2022-12-05T03:41:36.697Z,25.33
2022-12-05T03:44:10.254Z,25.27
2022-12-05T03:46:43.560Z,27.52
2022-12-05T03:49:10.732Z,26.67
2022-12-05T03:51:44.301Z,25.92
2022-12-05T03:54:17.684Z,27.38
2022-12-05T03:56:47.460Z,27.63
2022-12-05T03:59:19.638Z,27.00
2022-12-05T04:01:48.427Z,26.35
2022-12-05T04:04:17.860Z,27.05
2022-12-05T04:06:46.364Z,26.17
2022-12-05T04:09:17.494Z,26.73
2022-12-05T04:11:47.646Z,25.70
2022-12-05T04:14:17.985Z,25.02
2022-12-05T04:17:04.479Z,24.20
2022-12-05T04:19:51.787Z,23.25
2022-12-05T04:22:19.475Z,23.58
2022-12-05T04:25:05.900Z,23.38
2022-12-05T04:27:45.537Z,24.13
2022-12-05T04:30:15.389Z,22.33
2022-12-05T04:33:01.425Z,23.70
2022-12-05T04:35:31.692Z,24.20
2022-12-05T04:38:08.692Z,23.65
2022-12-05T04:40:39.030Z,23.52
2022-12-05T04:43:07.616Z,24.23
2022-12-05T04:45:36.207Z,22.15
2022-12-05T04:48:08.059Z,24.40
2022-12-05T04:50:35.698Z,24.52
2022-12-05T04:53:04.063Z,24.13
2022-12-05T04:55:33.321Z,24.25
2022-12-05T04:58:00.499Z,24.65
2022-12-05T05:00:29.307Z,25.30
2022-12-05T05:03:19.855Z,23.10
2022-12-05T05:05:49.602Z,22.88
2022-12-05T05:08:18.283Z,22.10
2022-12-05T05:10:50.118Z,20.33
2022-12-05T05:13:17.384Z,21.52
2022-12-05T05:15:44.577Z,22.98
2022-12-05T05:18:14.604Z,20.38
2022-12-05T05:20:43.798Z,20.42
2022-12-05T05:23:14.643Z,20.70
2022-12-05T05:25:41.849Z,20.65
2022-12-05T05:28:09.241Z,20.50
2022-12-05T05:30:36.555Z,19.40
2022-12-05T05:33:06.227Z,18.08
2022-12-05T05:35:36.809Z,17.23
2022-12-05T05:38:04.408Z,14.18
2022-12-05T05:40:31.634Z,14.98
2022-12-05T05:42:58.896Z,13.93
2022-12-05T05:45:26.137Z,13.32
2022-12-05T05:47:53.336Z,11.05
2022-12-05T05:50:22.020Z,9.27
2022-12-05T05:52:49.543Z,10.10
2022-12-05T05:55:17.533Z,9.63
2022-12-05T05:57:44.809Z,9.38
2022-12-05T06:00:20.105Z,7.57
2022-12-05T06:02:47.544Z,8.18
2022-12-05T06:05:15.203Z,8.02
2022-12-05T06:07:42.496Z,7.40
2022-12-05T06:10:13.205Z,8.00
2022-12-05T06:12:40.384Z,7.97
2022-12-05T06:15:07.995Z,8.73
2022-12-05T06:17:35.155Z,8.48
2022-12-05T06:20:02.412Z,8.43
2022-12-05T06:22:32.835Z,8.70
2022-12-05T06:25:00.139Z,8.93
2022-12-05T06:27:29.606Z,8.57
2022-12-05T06:29:57.180Z,8.68
2022-12-05T06:32:24.569Z,8.90
2022-12-05T06:34:51.734Z,9.82
2022-12-05T06:37:18.977Z,9.38
2022-12-05T06:39:46.806Z,9.85
2022-12-05T06:42:14.373Z,10.32
2022-12-05T06:44:41.723Z,9.38
2022-12-05T06:47:09.047Z,10.60
2022-12-05T06:49:48.311Z,9.85
2022-12-05T06:52:15.992Z,9.57
2022-12-05T06:54:43.347Z,9.27
2022-12-05T06:57:10.753Z,10.90
2022-12-05T06:59:37.965Z,8.95
2022-12-05T07:02:08.279Z,9.90
2022-12-05T07:04:35.774Z,9.90
2022-12-05T07:07:03.091Z,8.50
2022-12-05T07:09:51.275Z,10.00
2022-12-05T07:12:19.285Z,9.43
2022-12-05T07:14:48.632Z,9.52
2022-12-05T07:17:17.163Z,9.63
2022-12-05T07:19:44.326Z,9.60
2022-12-05T07:22:16.065Z,10.27
2022-12-05T07:24:43.803Z,10.45
2022-12-05T07:27:10.959Z,9.75
2022-12-05T07:29:38.133Z,9.27
2022-12-05T07:32:05.831Z,10.38
2022-12-05T07:34:33.265Z,9.15
2022-12-05T07:37:01.274Z,9.88
2022-12-05T07:39:28.657Z,9.10
2022-12-05T07:41:55.891Z,9.88
2022-12-05T07:44:23.275Z,9.43
2022-12-05T07:46:51.035Z,9.23
2022-12-05T07:49:18.299Z,10.68
2022-12-05T07:51:45.605Z,9.60
2022-12-05T07:54:12.869Z,11.43
2022-12-05T07:56:46.189Z,10.48
2022-12-05T07:59:15.055Z,10.07
2022-12-05T08:01:42.280Z,9.43
2022-12-05T08:04:14.801Z,10.57
2022-12-05T08:06:48.497Z,10.55
2022-12-05T08:09:15.673Z,10.00
2022-12-05T08:11:44.958Z,10.23
2022-12-05T08:14:15.419Z,10.43
2022-12-05T08:16:42.680Z,11.52
2022-12-05T08:19:12.983Z,10.55
2022-12-05T08:21:40.187Z,10.70
2022-12-05T08:24:08.046Z,11.35
2022-12-05T08:26:36.418Z,11.07
2022-12-05T08:29:07.922Z,11.27
2022-12-05T08:31:36.290Z,12.75
2022-12-05T08:34:03.541Z,9.95
2022-12-05T08:36:31.609Z,11.80
2022-12-05T08:38:59.604Z,12.30
2022-12-05T08:41:29.893Z,12.02
2022-12-05T08:43:57.811Z,12.48
2022-12-05T08:46:25.161Z,12.13
2022-12-05T08:48:52.558Z,13.70
2022-12-05T08:51:22.466Z,11.75
2022-12-05T08:53:49.599Z,13.02
2022-12-05T08:56:18.136Z,12.35
2022-12-05T08:58:47.053Z,13.65
2022-12-05T09:01:16.090Z,14.25
2022-12-05T09:03:47.797Z,14.82
2022-12-05T09:06:15.577Z,13.82
2022-12-05T09:08:43.343Z,15.23
2022-12-05T09:11:18.729Z,15.52
2022-12-05T09:13:46.592Z,14.68
2022-12-05T09:16:18.197Z,13.52
2022-12-05T09:18:45.720Z,13.93
2022-12-05T09:21:14.319Z,14.52
2022-12-05T09:23:41.912Z,14.32
2022-12-05T09:26:11.858Z,13.98
2022-12-05T09:28:39.436Z,12.52
2022-12-05T09:31:07.904Z,13.45
2022-12-05T09:33:36.438Z,13.98
2022-12-05T09:36:07.779Z,14.18
2022-12-05T09:38:35.058Z,13.95
2022-12-05T09:41:04.969Z,13.43
2022-12-05T09:43:36.460Z,13.70
2022-12-05T09:46:16.065Z,15.13
2022-12-05T09:48:44.980Z,14.02
2022-12-05T09:51:12.634Z,14.35
2022-12-05T09:53:40.909Z,13.90
2022-12-05T09:56:10.846Z,13.45
2022-12-05T09:58:51.212Z,12.05
2022-12-05T10:01:33.848Z,14.10
2022-12-05T10:04:20.208Z,15.02
2022-12-05T10:07:07.667Z,13.15
2022-12-05T10:09:40.748Z,13.38
2022-12-05T10:12:10.843Z,12.05
2022-12-05T10:14:49.915Z,12.55
2022-12-05T10:17:21.874Z,12.05
2022-12-05T10:19:50.538Z,11.43
2022-12-05T10:22:20.890Z,11.80
2022-12-05T10:24:50.364Z,11.48
2022-12-05T10:27:40.797Z,12.25
2022-12-05T10:30:18.695Z,12.13
2022-12-05T10:32:56.531Z,13.23
2022-12-05T10:35:24.874Z,11.68
2022-12-05T10:38:04.464Z,12.77
2022-12-05T10:40:35.730Z,12.98
2022-12-05T10:43:02.964Z,12.27
2022-12-05T10:45:30.104Z,12.32
2022-12-05T10:47:57.910Z,11.15
2022-12-05T10:50:31.500Z,10.45
2022-12-05T10:53:01.110Z,10.63
2022-12-05T10:55:41.222Z,11.55
2022-12-05T10:58:17.886Z,12.13
2022-12-05T11:00:47.043Z,11.60
2022-12-05T11:03:37.076Z,10.80
2022-12-05T11:06:16.000Z,11.18
2022-12-05T11:09:03.794Z,10.80
2022-12-05T11:11:33.477Z,10.57
2022-12-05T11:14:05.125Z,8.77
2022-12-05T11:16:39.178Z,10.20
2022-12-05T11:19:18.661Z,11.27
2022-12-05T11:21:45.848Z,10.70
2022-12-05T11:24:22.855Z,10.57
2022-12-05T11:26:50.757Z,9.02
2022-12-05T11:29:30.211Z,9.82
2022-12-05T11:31:57.510Z,8.45
2022-12-05T11:34:27.513Z,8.73
2022-12-05T11:36:59.377Z,8.15
2022-12-05T11:39:26.818Z,8.38
2022-12-05T11:42:03.138Z,8.30
2022-12-05T11:44:33.142Z,7.15
2022-12-05T11:47:18.944Z,7.88
2022-12-05T11:50:12.175Z,7.88
2022-12-05T11:52:42.146Z,7.70
2022-12-05T11:55:17.274Z,7.57
2022-12-05T12:00:27.771Z,7.47
2022-12-05T12:05:40.288Z,7.20
2022-12-05T12:08:07.498Z,7.82
2022-12-05T12:10:34.650Z,8.18
2022-12-05T12:13:04.515Z,7.25
2022-12-05T12:15:50.455Z,7.07
2022-12-05T12:18:25.521Z,6.72
2022-12-05T12:21:08.036Z,6.75
2022-12-05T12:23:51.556Z,6.35
2022-12-05T12:26:38.663Z,6.63
2022-12-05T12:29:24.591Z,6.18
2022-12-05T12:32:01.050Z,6.72
2022-12-05T12:34:49.805Z,7.50
2022-12-05T12:37:16.955Z,7.10
2022-12-05T12:39:51.879Z,5.95
2022-12-05T12:42:40.244Z,5.32
2022-12-05T12:45:24.729Z,5.75
2022-12-05T12:47:58.112Z,5.00
2022-12-05T12:50:31.984Z,5.25
2022-12-05T12:52:59.124Z,5.40
2022-12-05T12:55:32.566Z,5.22
2022-12-05T12:58:08.735Z,4.50
2022-12-05T13:00:54.774Z,4.70
2022-12-05T13:03:45.100Z,4.22
2022-12-05T13:06:14.383Z,4.80
2022-12-05T13:08:48.634Z,4.40
2022-12-05T13:11:16.160Z,5.13
2022-12-05T13:13:51.272Z,4.78
2022-12-05T13:16:24.144Z,5.82
2022-12-05T13:18:51.453Z,4.30
2022-12-05T13:21:19.050Z,4.65
2022-12-05T13:23:48.197Z,4.43
2022-12-05T13:26:15.889Z,4.15
2022-12-05T13:28:56.304Z,4.05
2022-12-05T13:31:36.947Z,3.78
2022-12-05T13:34:04.378Z,3.40
2022-12-05T13:36:58.001Z,4.40
2022-12-05T13:39:43.894Z,4.00
2022-12-05T13:42:24.535Z,4.88
2022-12-05T13:44:54.170Z,4.20
2022-12-05T13:47:24.008Z,4.22
2022-12-05T13:49:57.457Z,4.35
2022-12-05T13:52:27.622Z,4.30
2022-12-05T13:55:17.735Z,4.10
2022-12-05T13:57:47.214Z,4.05
2022-12-05T14:00:14.339Z,4.68
2022-12-05T14:02:47.144Z,4.32
2022-12-05T14:05:14.446Z,4.57
2022-12-05T14:07:45.895Z,4.88
2022-12-05T14:10:16.802Z,5.55
2022-12-05T14:12:50.090Z,5.97
2022-12-05T14:15:32.388Z,4.50
2022-12-05T14:18:02.634Z,4.80
2022-12-05T14:20:45.411Z,4.95
2022-12-05T14:23:17.759Z,5.05
2022-12-05T14:26:09.231Z,4.90
2022-12-05T14:28:48.704Z,4.78
2022-12-05T14:31:27.803Z,5.18
2022-12-05T14:34:13.493Z,4.38
2022-12-05T14:36:52.066Z,4.93
2022-12-05T14:39:29.957Z,5.28
2022-12-05T14:41:58.674Z,4.85
2022-12-05T14:44:32.044Z,5.18
2022-12-05T14:47:05.602Z,5.30
2022-12-05T14:49:38.627Z,5.55
2022-12-05T14:52:12.208Z,5.32
2022-12-05T14:54:40.323Z,5.68
2022-12-05T14:57:12.140Z,5.38
2022-12-05T14:59:45.678Z,5.45
2022-12-05T15:02:19.805Z,5.28
2022-12-05T15:04:47.014Z,5.68
2022-12-05T15:07:17.196Z,5.18
2022-12-05T15:10:02.699Z,5.47
2022-12-05T15:15:02.320Z,5.03
2022-12-05T15:17:35.262Z,5.43
2022-12-05T15:20:25.725Z,6.03
2022-12-05T15:22:52.924Z,5.47
2022-12-05T15:25:20.074Z,6.10
2022-12-05T15:28:04.551Z,5.13
2022-12-05T15:30:32.418Z,4.95
2022-12-05T15:33:00.078Z,5.95
2022-12-05T15:35:28.618Z,5.68
2022-12-05T15:37:58.546Z,6.53
2022-12-05T15:40:26.382Z,6.55
2022-12-05T15:42:55.482Z,7.20
2022-12-05T15:45:25.848Z,7.05
2022-12-05T15:47:56.834Z,7.40
2022-12-05T15:50:23.991Z,7.15
2022-12-05T15:52:53.975Z,7.95
2022-12-05T15:55:31.599Z,6.57
2022-12-05T15:58:08.156Z,8.40
2022-12-05T16:00:40.869Z,7.38
2022-12-05T16:03:08.093Z,7.22
2022-12-05T16:05:39.933Z,7.32
2022-12-05T16:08:08.468Z,6.43
2022-12-05T16:10:36.266Z,6.20
2022-12-05T16:13:04.944Z,6.78
2022-12-05T16:15:32.354Z,6.78
2022-12-05T16:18:00.593Z,7.57
2022-12-05T16:20:32.100Z,7.70
2022-12-05T16:23:01.388Z,6.63
2022-12-05T16:25:33.826Z,8.93
2022-12-05T16:28:02.963Z,8.60
2022-12-05T16:30:30.731Z,7.82
2022-12-05T16:33:02.529Z,8.32
2022-12-05T16:35:42.660Z,7.22
2022-12-05T16:38:14.718Z,8.65
2022-12-05T16:40:43.647Z,8.57
2022-12-05T16:43:20.363Z,7.78
2022-12-05T16:45:48.402Z,10.73
2022-12-05T16:48:17.683Z,9.40
2022-12-05T16:50:44.873Z,9.50
2022-12-05T16:53:12.158Z,8.77
2022-12-05T16:55:39.969Z,8.65
2022-12-05T16:58:07.207Z,7.97
2022-12-05T17:00:34.392Z,9.00
2022-12-05T17:03:32.328Z,9.10
2022-12-05T17:05:48.707Z,9.25
2022-12-05T17:08:18.670Z,7.97
2022-12-05T17:10:45.928Z,8.80
2022-12-05T17:13:16.525Z,9.43
2022-12-05T17:15:44.152Z,8.70
2022-12-05T17:18:17.012Z,9.05
2022-12-05T17:20:46.452Z,9.27
2022-12-05T17:23:14.810Z,9.40
2022-12-05T17:25:44.219Z,9.32
2022-12-05T17:28:11.552Z,9.10
2022-12-05T17:30:39.866Z,9.38
2022-12-05T17:33:07.500Z,9.43
2022-12-05T17:35:36.042Z,9.80
2022-12-05T17:38:04.264Z,9.38
2022-12-05T17:40:31.661Z,9.07
2022-12-05T17:42:58.808Z,9.85
2022-12-05T17:45:26.243Z,9.45
2022-12-05T17:47:53.521Z,10.00
2022-12-05T17:50:21.870Z,10.07
2022-12-05T17:52:55.052Z,10.82
2022-12-05T17:55:28.111Z,10.05
2022-12-05T17:57:55.948Z,10.57
2022-12-05T18:00:24.175Z,11.23
2022-12-05T18:02:52.606Z,11.52
2022-12-05T18:05:19.995Z,11.32
2022-12-05T18:07:47.265Z,11.35
2022-12-05T18:10:19.246Z,13.48
2022-12-05T18:12:46.787Z,12.07
2022-12-05T18:15:14.466Z,12.65
2022-12-05T18:17:41.953Z,12.68
2022-12-05T18:20:10.176Z,11.85
2022-12-05T18:22:37.356Z,13.27
2022-12-05T18:25:05.592Z,12.55
2022-12-05T18:27:33.901Z,16.77
2022-12-05T18:30:01.117Z,15.35
2022-12-05T18:32:28.383Z,15.52
2022-12-05T18:34:58.976Z,11.52
2022-12-05T18:37:28.218Z,12.90
2022-12-05T18:39:56.431Z,11.88
2022-12-05T18:42:23.858Z,11.00
2022-12-05T18:44:51.089Z,11.75
2022-12-05T18:47:18.286Z,11.25
2022-12-05T18:49:45.463Z,10.98
2022-12-05T18:52:12.633Z,10.27
2022-12-05T18:54:39.753Z,10.55
2022-12-05T18:57:07.055Z,11.13
2022-12-05T18:59:34.318Z,10.90
2022-12-05T19:02:01.854Z,10.80
2022-12-05T19:04:29.417Z,12.20
2022-12-05T19:07:01.868Z,11.57
2022-12-05T19:09:30.740Z,12.25
2022-12-05T19:11:59.029Z,12.77
2022-12-05T19:14:27.632Z,15.00
2022-12-05T19:16:59.923Z,14.05
2022-12-05T19:19:28.055Z,14.05
2022-12-05T19:21:55.257Z,13.68
2022-12-05T19:24:22.395Z,13.82
2022-12-05T19:26:49.577Z,11.93
2022-12-05T19:29:17.401Z,13.85
2022-12-05T19:31:44.899Z,12.63
2022-12-05T19:34:12.349Z,14.35
2022-12-05T19:36:44.159Z,13.05
2022-12-05T19:39:15.879Z,13.27
2022-12-05T19:41:43.351Z,13.75
2022-12-05T19:44:11.009Z,12.77
2022-12-05T19:46:38.586Z,11.88
2022-12-05T19:49:07.355Z,12.80
2022-12-05T19:51:34.478Z,11.80
2022-12-05T19:54:02.298Z,13.70
2022-12-05T19:56:32.250Z,13.38
2022-12-05T19:58:59.929Z,12.38
2022-12-05T20:01:27.310Z,13.32
2022-12-05T20:03:58.522Z,14.13
2022-12-05T20:06:26.151Z,13.77
2022-12-05T20:08:54.200Z,13.93
2022-12-05T20:11:25.007Z,13.75
2022-12-05T20:13:52.950Z,14.10
2022-12-05T20:16:21.723Z,13.73
2022-12-05T20:18:49.557Z,13.52
2022-12-05T20:21:18.583Z,13.55
2022-12-05T20:23:45.840Z,13.40
2022-12-05T20:26:14.027Z,14.48
2022-12-05T20:28:41.541Z,15.63
2022-12-05T20:31:10.725Z,14.68
2022-12-05T20:33:38.339Z,15.25
2022-12-05T20:36:09.678Z,14.68
2022-12-05T20:38:36.869Z,14.98
2022-12-05T20:41:08.863Z,14.75
2022-12-05T20:43:36.281Z,14.73
2022-12-05T20:46:07.559Z,14.55
2022-12-05T20:48:35.189Z,16.02
2022-12-05T20:51:06.397Z,14.55
2022-12-05T20:53:37.456Z,14.73
2022-12-05T20:56:09.128Z,15.25
2022-12-05T20:58:36.506Z,16.50
2022-12-05T21:01:05.943Z,15.05
2022-12-05T21:03:33.191Z,14.13
2022-12-05T21:06:00.597Z,14.40
2022-12-05T21:08:27.990Z,16.42
2022-12-05T21:10:55.218Z,15.57
2022-12-05T21:13:22.343Z,14.43
2022-12-05T21:15:49.648Z,17.27
2022-12-05T21:18:16.919Z,18.95
2022-12-05T21:20:44.163Z,17.17
2022-12-05T21:23:11.462Z,18.58
2022-12-05T21:25:38.630Z,15.75
2022-12-05T21:28:05.791Z,15.65
2022-12-05T21:30:34.720Z,15.05
2022-12-05T21:33:01.976Z,15.77
2022-12-05T21:35:29.172Z,16.85
2022-12-05T21:37:56.355Z,15.20
2022-12-05T21:40:23.506Z,16.30
2022-12-05T21:42:50.661Z,14.88
2022-12-05T21:45:17.839Z,15.32
2022-12-05T21:47:45.335Z,13.45
2022-12-05T21:50:12.676Z,13.85
2022-12-05T21:52:40.551Z,15.02
2022-12-05T21:55:08.250Z,14.68
2022-12-05T21:57:38.960Z,13.18
2022-12-05T22:00:09.653Z,12.88
2022-12-05T22:02:36.932Z,14.43
2022-12-05T22:05:04.326Z,13.82
2022-12-05T22:07:31.519Z,13.10
2022-12-05T22:09:59.021Z,12.57
2022-12-05T22:12:26.479Z,12.43
2022-12-05T22:14:53.719Z,11.20
2022-12-05T22:17:20.867Z,11.38
2022-12-05T22:19:47.994Z,11.13
2022-12-05T22:22:15.544Z,11.73
2022-12-05T22:24:42.688Z,10.52
2022-12-05T22:27:09.828Z,11.50
2022-12-05T22:29:37.225Z,11.93
2022-12-05T22:32:04.418Z,11.30
2022-12-05T22:34:31.675Z,12.25
2022-12-05T22:36:59.201Z,12.20
2022-12-05T22:39:26.359Z,12.77
2022-12-05T22:41:53.484Z,11.13
2022-12-05T22:44:20.708Z,11.80
2022-12-05T22:46:47.967Z,11.48
2022-12-05T22:49:15.272Z,13.20
2022-12-05T22:51:42.440Z,11.88
2022-12-05T22:54:09.633Z,11.98
2022-12-05T22:56:36.988Z,12.00
2022-12-05T22:59:04.163Z,15.95
2022-12-05T23:01:32.534Z,18.67
2022-12-05T23:04:07.273Z,17.00
2022-12-05T23:06:35.401Z,13.93
2022-12-05T23:09:03.459Z,12.95
2022-12-05T23:11:30.987Z,14.73
2022-12-05T23:14:02.252Z,15.20
2022-12-05T23:16:32.943Z,16.63
2022-12-05T23:19:01.268Z,14.18
2022-12-05T23:21:30.125Z,13.98
2022-12-05T23:23:58.404Z,11.32
2022-12-05T23:26:26.739Z,10.60
2022-12-05T23:28:54.244Z,13.75
2022-12-05T23:31:21.884Z,14.48
2022-12-05T23:33:51.438Z,14.15
2022-12-05T23:36:19.151Z,10.73
2022-12-05T23:38:46.253Z,12.48
2022-12-05T23:41:20.655Z,12.38
2022-12-05T23:43:48.410Z,15.48
2022-12-05T23:46:16.299Z,13.63
2022-12-05T23:48:43.949Z,12.75
2022-12-05T23:51:17.618Z,11.20
2022-12-05T23:53:45.275Z,12.95
2022-12-05T23:56:14.762Z,15.65
2022-12-05T23:58:42.432Z,13.80
